createdAt,value
2019-06-08T00:01:44.744Z,14.03
2019-06-08T00:04:14.416Z,13.50
2019-06-08T00:06:43.352Z,12.93
2019-06-08T00:09:13.029Z,13.05
2019-06-08T00:11:41.738Z,14.37
2019-06-08T00:14:10.360Z,13.47
2019-06-08T00:16:39.413Z,13.54
2019-06-08T00:19:08.058Z,13.45
2019-06-08T00:21:36.648Z,13.95
2019-06-08T00:24:05.344Z,13.13
2019-06-08T00:26:33.961Z,14.07
2019-06-08T00:29:02.705Z,13.80
2019-06-08T00:31:31.355Z,14.10
2019-06-08T00:34:00.067Z,13.57
2019-06-08T00:36:28.709Z,13.50
2019-06-08T00:38:57.412Z,13.63
2019-06-08T00:41:26.063Z,13.40
2019-06-08T00:43:54.710Z,14.15
2019-06-08T00:46:23.712Z,13.90
2019-06-08T00:48:52.257Z,14.20
2019-06-08T00:51:21.051Z,13.55
2019-06-08T00:53:49.769Z,13.10
2019-06-08T00:56:19.429Z,13.48
2019-06-08T00:58:48.074Z,14.20
2019-06-08T01:01:16.645Z,15.20
2019-06-08T01:03:45.300Z,14.20
2019-06-08T01:06:13.924Z,14.90
2019-06-08T01:08:42.578Z,14.90
2019-06-08T01:11:11.151Z,14.90
2019-06-08T01:13:39.872Z,14.63
2019-06-08T01:16:08.454Z,15.53
2019-06-08T01:18:37.114Z,13.75
2019-06-08T01:21:06.144Z,14.80
2019-06-08T01:23:34.785Z,14.68
2019-06-08T01:26:03.433Z,14.45
2019-06-08T01:28:32.134Z,15.03
2019-06-08T01:31:00.765Z,14.85
2019-06-08T01:33:48.699Z,15.10
2019-06-08T01:36:17.260Z,15.63
2019-06-08T01:38:45.851Z,14.10
2019-06-08T01:41:14.412Z,14.60
2019-06-08T01:43:43.183Z,14.68
2019-06-08T01:46:11.837Z,15.00
2019-06-08T01:48:40.493Z,14.70
2019-06-08T01:51:09.177Z,15.00
2019-06-08T01:53:37.850Z,14.47
2019-06-08T01:56:06.488Z,15.18
2019-06-08T01:58:35.160Z,14.53
2019-06-08T02:01:03.828Z,15.68
2019-06-08T02:03:32.763Z,15.43
2019-06-08T02:06:01.418Z,14.10
2019-06-08T02:08:30.666Z,15.38
2019-06-08T02:10:59.383Z,14.50
2019-06-08T02:13:28.867Z,15.25
2019-06-08T02:15:57.524Z,13.98
2019-06-08T02:18:36.403Z,14.16
2019-06-08T02:20:56.817Z,14.95
2019-06-08T02:23:26.908Z,14.63
2019-06-08T02:25:55.318Z,14.98
2019-06-08T02:28:23.960Z,14.50
2019-06-08T02:30:52.775Z,15.50
2019-06-08T02:33:21.365Z,15.72
2019-06-08T02:35:50.083Z,13.90
2019-06-08T02:38:18.835Z,14.30
2019-06-08T02:40:48.158Z,13.64
2019-06-08T02:43:16.910Z,14.73
2019-06-08T02:45:45.622Z,13.13
2019-06-08T02:48:14.341Z,13.45
2019-06-08T02:51:02.410Z,13.85
2019-06-08T02:53:32.166Z,13.68
2019-06-08T02:56:04.446Z,13.53
2019-06-08T02:58:36.914Z,13.33
2019-06-08T03:01:05.963Z,14.78
2019-06-08T03:03:38.089Z,14.68
2019-06-08T03:08:39.103Z,12.43
2019-06-08T03:13:37.547Z,13.15
2019-06-08T03:16:06.086Z,12.33
2019-06-08T03:18:35.868Z,12.60
2019-06-08T03:21:05.154Z,11.95
2019-06-08T03:23:34.252Z,13.18
2019-06-08T03:26:03.243Z,12.10
2019-06-08T03:28:32.614Z,11.13
2019-06-08T03:31:01.939Z,11.08
2019-06-08T03:33:31.139Z,11.00
2019-06-08T03:35:59.800Z,11.20
2019-06-08T03:38:28.451Z,11.12
2019-06-08T03:40:57.092Z,11.68
2019-06-08T03:43:25.844Z,10.80
2019-06-08T03:45:54.515Z,10.28
2019-06-08T03:48:23.146Z,10.20
2019-06-08T03:50:51.721Z,10.32
2019-06-08T03:53:20.405Z,8.93
2019-06-08T03:55:49.269Z,9.13
2019-06-08T03:58:17.931Z,8.93
2019-06-08T04:00:47.536Z,9.10
2019-06-08T04:03:17.002Z,8.63
2019-06-08T04:05:46.527Z,9.28
2019-06-08T04:08:15.571Z,7.50
2019-06-08T04:10:44.710Z,8.50
2019-06-08T04:13:14.322Z,7.40
2019-06-08T04:15:44.631Z,7.45
2019-06-08T04:18:13.286Z,6.90
2019-06-08T04:20:44.968Z,7.12
2019-06-08T04:23:12.362Z,6.85
2019-06-08T04:25:42.347Z,6.42
2019-06-08T04:28:11.226Z,6.58
2019-06-08T04:30:41.059Z,6.25
2019-06-08T04:33:10.192Z,5.58
2019-06-08T04:35:40.200Z,5.00
2019-06-08T04:38:09.263Z,4.65
2019-06-08T04:40:39.557Z,4.62
2019-06-08T04:43:08.207Z,5.13
2019-06-08T04:45:38.622Z,5.17
2019-06-08T04:48:09.640Z,4.47
2019-06-08T04:50:38.707Z,4.75
2019-06-08T04:53:07.348Z,4.62
2019-06-08T04:55:35.962Z,4.90
2019-06-08T04:58:04.682Z,4.85
2019-06-08T05:00:33.401Z,5.17
2019-06-08T05:03:01.997Z,4.65
2019-06-08T05:05:30.614Z,6.05
2019-06-08T05:07:59.213Z,5.00
2019-06-08T05:10:27.758Z,5.17
2019-06-08T05:12:57.135Z,5.12
2019-06-08T05:15:25.856Z,4.92
2019-06-08T05:17:54.510Z,5.35
2019-06-08T05:20:37.801Z,5.10
2019-06-08T05:22:53.348Z,5.00
2019-06-08T05:25:21.970Z,5.20
2019-06-08T05:27:50.542Z,4.92
2019-06-08T05:30:19.853Z,4.70
2019-06-08T05:32:49.654Z,4.87
2019-06-08T05:35:18.458Z,4.65
2019-06-08T05:37:47.752Z,4.40
2019-06-08T05:40:16.614Z,4.30
2019-06-08T05:42:45.749Z,4.22
2019-06-08T05:45:14.623Z,4.20
2019-06-08T05:47:43.920Z,4.08
2019-06-08T05:50:12.927Z,4.10
2019-06-08T05:52:41.900Z,3.75
2019-06-08T05:55:10.561Z,3.65
2019-06-08T05:57:40.274Z,3.65
2019-06-08T06:00:12.914Z,3.45
2019-06-08T06:02:42.281Z,3.67
2019-06-08T06:05:11.447Z,3.67
2019-06-08T06:07:40.535Z,3.72
2019-06-08T06:10:09.573Z,3.57
2019-06-08T06:12:38.240Z,4.00
2019-06-08T06:15:07.750Z,3.62
2019-06-08T06:17:36.454Z,4.00
2019-06-08T06:20:08.639Z,4.10
2019-06-08T06:22:37.325Z,3.45
2019-06-08T06:25:07.041Z,3.55
2019-06-08T06:27:35.665Z,3.60
2019-06-08T06:30:06.282Z,3.85
2019-06-08T06:32:35.825Z,3.70
2019-06-08T06:35:05.723Z,3.05
2019-06-08T06:37:34.357Z,3.30
2019-06-08T06:40:03.115Z,3.75
2019-06-08T06:42:31.756Z,3.77
2019-06-08T06:45:00.482Z,3.40
2019-06-08T06:47:29.026Z,3.53
2019-06-08T06:49:57.676Z,4.20
2019-06-08T06:52:26.254Z,3.73
2019-06-08T06:54:54.826Z,3.90
2019-06-08T06:57:26.367Z,3.55
2019-06-08T06:59:54.947Z,3.73
2019-06-08T07:02:23.554Z,3.50
2019-06-08T07:04:52.271Z,3.37
2019-06-08T07:07:20.971Z,3.92
2019-06-08T07:09:50.518Z,3.72
2019-06-08T07:12:19.066Z,3.70
2019-06-08T07:14:48.969Z,3.58
2019-06-08T07:17:17.711Z,3.52
2019-06-08T07:19:46.412Z,3.37
2019-06-08T07:22:15.005Z,3.15
2019-06-08T07:24:43.689Z,3.37
2019-06-08T07:27:12.341Z,3.22
2019-06-08T07:29:40.938Z,3.30
2019-06-08T07:32:10.230Z,3.35
2019-06-08T07:34:41.170Z,3.42
2019-06-08T07:37:09.225Z,3.30
2019-06-08T07:39:37.884Z,3.80
2019-06-08T07:42:06.677Z,3.50
2019-06-08T07:44:35.209Z,3.57
2019-06-08T07:47:03.760Z,3.37
2019-06-08T07:49:32.554Z,3.27
2019-06-08T07:52:09.826Z,3.27
2019-06-08T07:54:31.249Z,2.95
2019-06-08T07:56:59.894Z,3.25
2019-06-08T07:59:28.589Z,3.52
2019-06-08T08:01:58.393Z,3.17
2019-06-08T08:04:26.945Z,3.20
2019-06-08T08:06:56.749Z,3.45
2019-06-08T08:09:25.409Z,3.37
2019-06-08T08:11:55.245Z,3.10
2019-06-08T08:14:23.789Z,3.37
2019-06-08T08:16:52.880Z,2.92
2019-06-08T08:19:21.551Z,3.20
2019-06-08T08:21:51.869Z,2.90
2019-06-08T08:24:20.506Z,3.30
2019-06-08T08:26:50.840Z,3.72
2019-06-08T08:29:19.415Z,3.43
2019-06-08T08:31:50.193Z,3.75
2019-06-08T08:34:18.388Z,3.80
2019-06-08T08:36:48.192Z,3.80
2019-06-08T08:39:17.980Z,4.87
2019-06-08T08:41:49.912Z,4.50
2019-06-08T08:44:17.627Z,4.97
2019-06-08T08:46:48.726Z,4.47
2019-06-08T08:49:18.206Z,5.35
2019-06-08T08:51:47.694Z,5.40
2019-06-08T08:54:18.361Z,4.80
2019-06-08T08:56:50.468Z,5.85
2019-06-08T08:59:17.781Z,5.58
2019-06-08T09:01:48.259Z,5.73
2019-06-08T09:04:18.528Z,5.95
2019-06-08T09:06:48.302Z,5.95
2019-06-08T09:09:18.791Z,5.47
2019-06-08T09:11:48.454Z,6.10
2019-06-08T09:14:18.449Z,5.08
2019-06-08T09:16:48.148Z,5.03
2019-06-08T09:19:20.610Z,5.10
2019-06-08T09:21:48.296Z,5.87
2019-06-08T09:24:18.609Z,5.80
2019-06-08T09:26:47.848Z,5.40
2019-06-08T09:29:18.721Z,5.15
2019-06-08T09:31:49.027Z,4.92
2019-06-08T09:34:19.398Z,5.20
2019-06-08T09:36:48.040Z,4.60
2019-06-08T09:39:18.630Z,5.03
2019-06-08T09:41:47.893Z,4.65
2019-06-08T09:44:19.464Z,4.80
2019-06-08T09:46:48.251Z,4.63
2019-06-08T09:49:18.857Z,4.90
2019-06-08T09:51:48.709Z,4.42
2019-06-08T09:54:18.301Z,4.20
2019-06-08T09:56:47.816Z,4.30
2019-06-08T09:59:18.691Z,4.08
2019-06-08T10:01:47.033Z,4.50
2019-06-08T10:04:15.594Z,4.22
2019-06-08T10:06:44.272Z,4.33
2019-06-08T10:09:13.156Z,4.22
2019-06-08T10:11:41.870Z,3.62
2019-06-08T10:14:12.259Z,4.22
2019-06-08T10:16:40.903Z,4.05
2019-06-08T10:19:10.309Z,3.72
2019-06-08T10:21:42.829Z,3.45
2019-06-08T10:24:09.888Z,3.30
2019-06-08T10:26:38.671Z,3.72
2019-06-08T10:29:09.835Z,3.40
2019-06-08T10:31:43.051Z,4.12
2019-06-08T10:34:10.977Z,3.65
2019-06-08T10:36:38.359Z,3.60
2019-06-08T10:39:11.525Z,3.57
2019-06-08T10:41:38.863Z,3.52
2019-06-08T10:44:08.584Z,4.23
2019-06-08T10:46:40.356Z,3.83
2019-06-08T10:49:13.893Z,3.83
2019-06-08T10:51:40.836Z,3.60
2019-06-08T10:54:11.389Z,3.75
2019-06-08T10:56:40.284Z,3.90
2019-06-08T10:59:10.560Z,3.67
2019-06-08T11:01:39.148Z,3.47
2019-06-08T11:04:09.276Z,3.80
2019-06-08T11:06:40.263Z,3.90
2019-06-08T11:09:12.748Z,3.95
2019-06-08T11:11:38.699Z,4.00
2019-06-08T11:14:12.433Z,3.85
2019-06-08T11:16:38.579Z,3.58
2019-06-08T11:19:11.439Z,2.30
2019-06-08T11:21:38.531Z,2.25
2019-06-08T11:24:23.039Z,2.17
2019-06-08T11:26:40.247Z,2.27
2019-06-08T11:29:11.836Z,2.37
2019-06-08T11:31:39.352Z,2.47
2019-06-08T11:34:08.692Z,2.00
2019-06-08T11:36:39.378Z,2.33
2019-06-08T11:39:10.838Z,2.40
2019-06-08T11:41:38.723Z,2.90
2019-06-08T11:44:11.707Z,2.95
2019-06-08T11:46:38.416Z,3.30
2019-06-08T11:49:11.758Z,3.05
2019-06-08T11:51:38.477Z,3.17
2019-06-08T11:54:25.230Z,3.57
2019-06-08T11:56:40.391Z,3.35
2019-06-08T11:59:13.779Z,4.03
2019-06-08T12:01:39.954Z,3.60
2019-06-08T12:04:09.844Z,3.12
2019-06-08T12:06:38.570Z,4.05
2019-06-08T12:09:10.475Z,3.87
2019-06-08T12:11:38.270Z,3.45
2019-06-08T12:14:09.241Z,3.60
2019-06-08T12:16:37.804Z,3.62
2019-06-08T12:19:09.970Z,4.00
2019-06-08T12:21:36.876Z,4.00
2019-06-08T12:24:06.141Z,3.80
2019-06-08T12:26:35.099Z,4.47
2019-06-08T12:29:04.949Z,3.92
2019-06-08T12:31:33.692Z,3.72
2019-06-08T12:34:02.253Z,3.02
2019-06-08T12:36:30.866Z,3.87
2019-06-08T12:38:59.458Z,3.72
2019-06-08T12:41:31.178Z,3.33
2019-06-08T12:43:58.285Z,3.20
2019-06-08T12:46:28.042Z,3.70
2019-06-08T12:48:58.251Z,3.62
2019-06-08T12:51:28.146Z,3.65
2019-06-08T12:54:00.020Z,3.80
2019-06-08T12:56:28.754Z,4.17
2019-06-08T12:58:58.020Z,3.80
2019-06-08T13:01:28.238Z,4.10
2019-06-08T13:03:58.174Z,3.75
2019-06-08T13:06:28.248Z,3.05
2019-06-08T13:08:57.734Z,2.80
2019-06-08T13:11:28.307Z,3.33
2019-06-08T13:13:56.688Z,3.33
2019-06-08T13:16:25.291Z,2.97
2019-06-08T13:18:53.872Z,2.67
2019-06-08T13:21:34.149Z,2.98
2019-06-08T13:23:52.927Z,3.40
2019-06-08T13:26:27.963Z,2.83
2019-06-08T13:28:54.769Z,3.77
2019-06-08T13:31:25.084Z,3.30
2019-06-08T13:33:53.641Z,3.47
2019-06-08T13:36:26.313Z,3.20
2019-06-08T13:38:52.479Z,3.55
2019-06-08T13:41:25.964Z,3.37
2019-06-08T13:43:51.394Z,3.90
2019-06-08T13:46:22.349Z,3.83
2019-06-08T13:48:50.333Z,3.35
2019-06-08T13:51:20.993Z,3.58
2019-06-08T13:53:50.016Z,3.50
2019-06-08T13:56:20.648Z,3.90
2019-06-08T13:58:49.184Z,3.65
2019-06-08T14:01:17.884Z,3.60
2019-06-08T14:03:49.777Z,3.37
2019-06-08T14:06:19.073Z,3.02
2019-06-08T14:08:49.891Z,2.85
2019-06-08T14:11:19.616Z,2.50
2019-06-08T14:13:48.789Z,2.25
2019-06-08T14:16:20.317Z,2.15
2019-06-08T14:18:48.578Z,1.90
2019-06-08T14:21:25.758Z,1.90
2019-06-08T14:23:48.424Z,1.65
2019-06-08T14:26:19.709Z,1.80
2019-06-08T14:28:50.289Z,1.67
2019-06-08T14:31:19.745Z,1.82
2019-06-08T14:33:48.393Z,1.87
2019-06-08T14:36:20.795Z,1.65
2019-06-08T14:38:49.280Z,1.85
2019-06-08T14:41:19.415Z,2.15
2019-06-08T14:43:50.870Z,2.12
2019-06-08T14:46:20.858Z,1.80
2019-06-08T14:48:49.101Z,2.10
2019-06-08T14:51:18.697Z,1.80
2019-06-08T14:53:48.579Z,2.33
2019-06-08T14:56:19.437Z,2.00
2019-06-08T14:58:48.291Z,2.30
2019-06-08T15:01:19.423Z,2.50
2019-06-08T15:03:48.163Z,2.30
2019-06-08T15:06:17.849Z,2.47
2019-06-08T15:08:50.022Z,2.50
2019-06-08T15:11:17.871Z,2.60
2019-06-08T15:13:48.736Z,2.70
2019-06-08T15:16:18.218Z,2.52
2019-06-08T15:18:47.025Z,2.47
2019-06-08T15:21:17.972Z,2.83
2019-06-08T15:23:47.644Z,2.37
2019-06-08T15:26:26.278Z,2.90
2019-06-08T15:28:48.415Z,2.30
2019-06-08T15:31:18.354Z,2.50
2019-06-08T15:33:48.210Z,2.45
2019-06-08T15:36:20.289Z,2.45
2019-06-08T15:38:48.016Z,2.25
2019-06-08T15:41:20.757Z,2.15
2019-06-08T15:43:48.096Z,2.08
2019-06-08T15:46:18.389Z,2.10
2019-06-08T15:48:48.502Z,2.03
2019-06-08T15:51:17.460Z,2.10
2019-06-08T15:53:47.705Z,1.95
2019-06-08T15:56:18.558Z,1.95
2019-06-08T15:58:48.713Z,2.20
2019-06-08T16:01:17.042Z,2.70
2019-06-08T16:03:45.817Z,2.20
2019-06-08T16:06:14.467Z,2.10
2019-06-08T16:08:43.017Z,2.13
2019-06-08T16:11:11.684Z,2.20
2019-06-08T16:13:40.342Z,2.37
2019-06-08T16:16:09.093Z,2.20
2019-06-08T16:18:37.649Z,1.80
2019-06-08T16:21:06.294Z,2.20
2019-06-08T16:23:35.958Z,2.33
2019-06-08T16:26:04.774Z,2.05
2019-06-08T16:28:34.171Z,2.35
2019-06-08T16:31:05.476Z,2.10
2019-06-08T16:33:33.707Z,2.08
2019-06-08T16:36:02.239Z,1.65
2019-06-08T16:38:32.200Z,1.70
2019-06-08T16:41:01.059Z,2.10
2019-06-08T16:43:30.962Z,1.87
2019-06-08T16:45:59.670Z,2.30
2019-06-08T16:48:28.319Z,2.22
2019-06-08T16:51:00.199Z,3.10
2019-06-08T16:53:29.433Z,3.77
2019-06-08T16:55:58.210Z,3.30
2019-06-08T16:58:27.846Z,2.45
2019-06-08T17:00:56.510Z,2.20
2019-06-08T17:03:25.115Z,1.67
2019-06-08T17:05:53.764Z,1.90
2019-06-08T17:08:22.386Z,1.67
2019-06-08T17:10:51.113Z,1.35
2019-06-08T17:13:19.702Z,1.40
2019-06-08T17:15:48.325Z,1.50
2019-06-08T17:18:17.047Z,1.30
2019-06-08T17:20:45.745Z,1.37
2019-06-08T17:23:14.305Z,1.60
2019-06-08T17:25:43.033Z,1.63
2019-06-08T17:28:14.593Z,1.40
2019-06-08T17:33:11.108Z,1.30
2019-06-08T17:35:39.940Z,0.98
2019-06-08T17:38:09.230Z,1.22
2019-06-08T17:40:38.106Z,1.20
2019-06-08T17:43:06.808Z,1.25
2019-06-08T17:45:36.316Z,1.20
2019-06-08T17:48:04.964Z,1.22
2019-06-08T17:50:34.705Z,0.90
2019-06-08T17:53:03.738Z,1.17
2019-06-08T17:55:33.122Z,1.02
2019-06-08T17:58:01.806Z,1.20
2019-06-08T18:00:31.132Z,1.10
2019-06-08T18:03:00.597Z,0.98
2019-06-08T18:05:29.431Z,1.00
2019-06-08T18:07:58.072Z,1.20
2019-06-08T18:10:27.715Z,1.20
2019-06-08T18:12:58.747Z,1.20
2019-06-08T18:15:28.308Z,1.00
2019-06-08T18:17:57.705Z,1.20
2019-06-08T18:20:28.260Z,1.17
2019-06-08T18:22:57.871Z,1.20
2019-06-08T18:25:27.941Z,1.52
2019-06-08T18:28:06.573Z,1.10
2019-06-08T18:30:27.768Z,1.50
2019-06-08T18:32:58.111Z,1.20
2019-06-08T18:35:27.795Z,1.37
2019-06-08T18:37:57.766Z,1.25
2019-06-08T18:40:27.272Z,1.80
2019-06-08T18:42:57.694Z,1.65
2019-06-08T18:45:27.608Z,1.60
2019-06-08T18:47:57.757Z,1.50
2019-06-08T18:50:28.477Z,1.30
2019-06-08T18:52:57.953Z,1.45
2019-06-08T18:55:27.737Z,1.50
2019-06-08T18:57:57.158Z,1.42
2019-06-08T19:00:40.057Z,1.80
2019-06-08T19:03:08.605Z,1.23
2019-06-08T19:05:40.220Z,1.67
2019-06-08T19:08:10.007Z,2.42
2019-06-08T19:10:42.041Z,1.60
2019-06-08T19:13:10.820Z,1.70
2019-06-08T19:15:42.876Z,1.70
2019-06-08T19:18:09.831Z,2.08
2019-06-08T19:20:42.896Z,2.00
2019-06-08T19:23:09.333Z,2.05
2019-06-08T19:25:41.203Z,1.70
2019-06-08T19:28:08.749Z,2.00
2019-06-08T19:30:39.446Z,1.92
2019-06-08T19:33:07.751Z,1.80
2019-06-08T19:35:37.653Z,1.80
2019-06-08T19:38:07.431Z,1.90
2019-06-08T19:40:37.897Z,2.20
2019-06-08T19:43:07.513Z,1.90
2019-06-08T19:45:39.124Z,2.12
2019-06-08T19:48:08.282Z,2.20
2019-06-08T19:50:38.625Z,2.08
2019-06-08T19:53:07.467Z,2.30
2019-06-08T19:55:36.179Z,2.10
2019-06-08T19:58:04.870Z,2.33
2019-06-08T20:00:34.755Z,2.42
2019-06-08T20:03:03.380Z,2.20
2019-06-08T20:05:32.161Z,2.60
2019-06-08T20:08:00.778Z,2.67
2019-06-08T20:10:29.394Z,3.00
2019-06-08T20:12:58.301Z,2.45
2019-06-08T20:15:26.984Z,2.98
2019-06-08T20:17:57.499Z,2.33
2019-06-08T20:20:27.893Z,2.60
2019-06-08T20:22:58.371Z,2.40
2019-06-08T20:25:27.824Z,2.50
2019-06-08T20:27:58.740Z,2.64
2019-06-08T20:30:28.237Z,2.70
2019-06-08T20:32:57.602Z,2.80
2019-06-08T20:35:28.040Z,2.47
2019-06-08T20:37:57.821Z,3.05
2019-06-08T20:40:27.948Z,3.00
2019-06-08T20:42:57.815Z,2.80
2019-06-08T20:45:28.042Z,2.90
2019-06-08T20:47:58.463Z,2.70
2019-06-08T20:50:27.445Z,2.77
2019-06-08T20:52:57.681Z,2.50
2019-06-08T20:55:28.241Z,3.00
2019-06-08T20:57:57.549Z,2.95
2019-06-08T21:00:26.510Z,2.87
2019-06-08T21:03:02.527Z,3.17
2019-06-08T21:05:27.943Z,2.58
2019-06-08T21:07:58.936Z,3.10
2019-06-08T21:10:28.138Z,3.10
2019-06-08T21:12:58.750Z,2.92
2019-06-08T21:15:27.537Z,3.08
2019-06-08T21:17:56.287Z,2.25
2019-06-08T21:20:24.825Z,2.75
2019-06-08T21:22:54.981Z,2.72
2019-06-08T21:25:23.846Z,2.65
2019-06-08T21:27:52.941Z,2.27
2019-06-08T21:30:24.630Z,2.90
2019-06-08T21:32:55.058Z,2.60
2019-06-08T21:35:23.638Z,2.92
2019-06-08T21:37:53.338Z,2.92
2019-06-08T21:40:22.576Z,2.65
2019-06-08T21:42:52.281Z,2.53
2019-06-08T21:45:21.407Z,2.75
2019-06-08T21:47:51.368Z,2.75
2019-06-08T21:50:20.296Z,2.55
2019-06-08T21:52:51.401Z,2.87
2019-06-08T21:55:19.082Z,2.70
2019-06-08T21:57:49.830Z,2.58
2019-06-08T22:00:38.703Z,2.92
2019-06-08T22:02:51.808Z,2.83
2019-06-08T22:05:20.546Z,2.50
2019-06-08T22:07:50.106Z,2.58
2019-06-08T22:10:18.952Z,3.08
2019-06-08T22:12:48.326Z,2.75
2019-06-08T22:15:18.350Z,2.80
2019-06-08T22:17:47.690Z,2.37
2019-06-08T22:20:18.480Z,2.77
2019-06-08T22:22:47.340Z,2.85
2019-06-08T22:25:17.538Z,2.62
2019-06-08T22:27:47.098Z,2.98
2019-06-08T22:30:32.484Z,2.83
2019-06-08T22:32:47.429Z,2.92
2019-06-08T22:35:16.312Z,2.92
2019-06-08T22:37:45.034Z,2.92
2019-06-08T22:40:13.749Z,3.15
2019-06-08T22:42:42.504Z,2.87
2019-06-08T22:45:11.306Z,2.73
2019-06-08T22:47:39.858Z,2.83
2019-06-08T22:50:10.121Z,3.25
2019-06-08T22:52:39.014Z,3.17
2019-06-08T22:55:10.601Z,3.40
2019-06-08T22:57:38.195Z,3.08
2019-06-08T23:00:16.650Z,3.05
2019-06-08T23:02:38.603Z,2.95
2019-06-08T23:05:08.914Z,3.35
2019-06-08T23:07:37.960Z,3.22
2019-06-08T23:10:09.235Z,3.10
2019-06-08T23:12:38.300Z,2.90
2019-06-08T23:15:08.704Z,2.80
2019-06-08T23:17:38.737Z,3.27
2019-06-08T23:20:08.671Z,2.90
2019-06-08T23:22:38.708Z,3.22
2019-06-08T23:25:09.539Z,3.00
2019-06-08T23:27:38.388Z,3.50
2019-06-08T23:30:10.231Z,3.65
2019-06-08T23:32:39.311Z,3.87
2019-06-08T23:35:09.541Z,3.10
2019-06-08T23:37:38.434Z,3.37
2019-06-08T23:40:08.024Z,3.37
2019-06-08T23:42:38.314Z,3.80
2019-06-08T23:45:10.388Z,3.33
2019-06-08T23:47:38.670Z,3.43
2019-06-08T23:50:11.304Z,3.22
2019-06-08T23:52:38.438Z,3.67
2019-06-08T23:55:11.659Z,2.92
2019-06-08T23:57:38.962Z,3.60
